ePrivacy and GPDR Cookie Consent by Cookie Consent
EmailTwitter


Observations de surface / Québec / CYUL (71627)

Régions: Québec | Canada | États-Unis | Europe | France | UK | Ailleurs
Station
Affichage
Infos & localisation pour CYUL (71627) | Aide pour décoder les METARs

Observations prises le 2022-12-03 à 18H00 UTC à MONTREAL INTL A, QB (CYUL)

Etat du ciel: couvert.

Température: 6.0 Celsius

Point de rosée: 4.0 Celsius

Humidité relative: 87%

Facteur vent 2.

Vents: Sud-est à 22 km/h ou 12 noeuds.

Pression au niveau moyen de la mer: 100.35 kilopascals.

Calage altimétrique: 100.30 kilopascals ou 29.62 pouces de mercure.

Visibilité horizontale: 15.00 milles terrestres ou 24.00 kilomètres.

Hauteur du plafond: 823 mètres ( 2700 pieds ).

Observation METAR:

CYUL 031800Z 15012KT 15SM OVC027 06/04 A2962 RMK SC8 PRESFR SLP035=